sensor_id;sensor_type;location;lat;lon;timestamp;temperature;humidity
36444;DHT22;24692;45.642;13.806;2022-10-30T00:00:27;16.50;99.90
36444;DHT22;24692;45.642;13.806;2022-10-30T00:02:52;16.50;99.90
36444;DHT22;24692;45.642;13.806;2022-10-30T00:05:19;16.50;99.90
36444;DHT22;24692;45.642;13.806;2022-10-30T00:07:46;16.50;99.90
36444;DHT22;24692;45.642;13.806;2022-10-30T00:10:12;16.50;99.90
36444;DHT22;24692;45.642;13.806;2022-10-30T00:12:37;16.40;99.90
36444;DHT22;24692;45.642;13.806;2022-10-30T00:15:04;16.40;99.90
36444;DHT22;24692;45.642;13.806;2022-10-30T00:17:30;16.50;99.90
36444;DHT22;24692;45.642;13.806;2022-10-30T00:19:56;16.40;99.90
36444;DHT22;24692;45.642;13.806;2022-10-30T00:22:21;16.50;99.90
36444;DHT22;24692;45.642;13.806;2022-10-30T00:24:47;16.40;99.90
36444;DHT22;24692;45.642;13.806;2022-10-30T00:27:13;16.50;99.90
36444;DHT22;24692;45.642;13.806;2022-10-30T00:29:39;16.50;99.90
36444;DHT22;24692;45.642;13.806;2022-10-30T00:32:04;16.40;99.90
36444;DHT22;24692;45.642;13.806;2022-10-30T00:34:30;16.40;99.90
36444;DHT22;24692;45.642;13.806;2022-10-30T00:36:56;16.40;99.90
36444;DHT22;24692;45.642;13.806;2022-10-30T00:39:21;16.30;99.90
36444;DHT22;24692;45.642;13.806;2022-10-30T00:41:47;16.30;99.90
36444;DHT22;24692;45.642;13.806;2022-10-30T00:46:58;16.30;99.90
36444;DHT22;24692;45.642;13.806;2022-10-30T00:49:32;16.40;99.90
36444;DHT22;24692;45.642;13.806;2022-10-30T00:51:58;16.30;99.90
36444;DHT22;24692;45.642;13.806;2022-10-30T00:54:25;16.30;99.90
36444;DHT22;24692;45.642;13.806;2022-10-30T00:56:51;16.30;99.90
36444;DHT22;24692;45.642;13.806;2022-10-30T00:59:24;16.30;99.90
36444;DHT22;24692;45.642;13.806;2022-10-30T01:01:51;16.30;99.90
36444;DHT22;24692;45.642;13.806;2022-10-30T01:04:18;16.30;99.90
36444;DHT22;24692;45.642;13.806;2022-10-30T01:06:46;16.30;99.90
36444;DHT22;24692;45.642;13.806;2022-10-30T01:09:13;16.20;99.90
36444;DHT22;24692;45.642;13.806;2022-10-30T01:11:39;16.30;99.90
36444;DHT22;24692;45.642;13.806;2022-10-30T01:14:07;16.30;99.90
36444;DHT22;24692;45.642;13.806;2022-10-30T01:16:43;16.30;99.90
36444;DHT22;24692;45.642;13.806;2022-10-30T01:19:25;16.30;99.90
36444;DHT22;24692;45.642;13.806;2022-10-30T01:37:59;16.20;99.90
36444;DHT22;24692;45.642;13.806;2022-10-30T01:40:27;16.20;99.90
36444;DHT22;24692;45.642;13.806;2022-10-30T01:42:57;16.20;99.90
36444;DHT22;24692;45.642;13.806;2022-10-30T01:53:59;16.20;99.90
36444;DHT22;24692;45.642;13.806;2022-10-30T02:01:48;16.10;99.90
36444;DHT22;24692;45.642;13.806;2022-10-30T02:04:14;16.10;99.90
36444;DHT22;24692;45.642;13.806;2022-10-30T02:06:40;16.10;99.90
36444;DHT22;24692;45.642;13.806;2022-10-30T02:09:06;16.10;99.90
36444;DHT22;24692;45.642;13.806;2022-10-30T02:11:33;16.10;99.90
36444;DHT22;24692;45.642;13.806;2022-10-30T02:14:01;16.10;99.90
36444;DHT22;24692;45.642;13.806;2022-10-30T02:16:29;16.10;99.90
36444;DHT22;24692;45.642;13.806;2022-10-30T02:18:54;16.10;99.90
36444;DHT22;24692;45.642;13.806;2022-10-30T02:21:20;16.10;99.90
36444;DHT22;24692;45.642;13.806;2022-10-30T02:23:46;16.10;99.90
36444;DHT22;24692;45.642;13.806;2022-10-30T02:26:12;16.10;99.90
36444;DHT22;24692;45.642;13.806;2022-10-30T02:28:37;16.10;99.90
36444;DHT22;24692;45.642;13.806;2022-10-30T02:31:03;16.10;99.90
36444;DHT22;24692;45.642;13.806;2022-10-30T02:33:29;16.10;99.90
36444;DHT22;24692;45.642;13.806;2022-10-30T02:35:54;16.10;99.90
36444;DHT22;24692;45.642;13.806;2022-10-30T02:38:20;16.10;99.90
36444;DHT22;24692;45.642;13.806;2022-10-30T02:40:45;16.00;99.90
36444;DHT22;24692;45.642;13.806;2022-10-30T02:43:11;16.00;99.90
36444;DHT22;24692;45.642;13.806;2022-10-30T02:45:37;16.00;99.90
36444;DHT22;24692;45.642;13.806;2022-10-30T02:48:02;16.00;99.90
36444;DHT22;24692;45.642;13.806;2022-10-30T02:50:28;16.00;99.90
36444;DHT22;24692;45.642;13.806;2022-10-30T02:52:54;16.00;99.90
36444;DHT22;24692;45.642;13.806;2022-10-30T02:55:19;16.10;99.90
36444;DHT22;24692;45.642;13.806;2022-10-30T02:57:45;16.10;99.90
36444;DHT22;24692;45.642;13.806;2022-10-30T03:00:11;16.10;99.90
36444;DHT22;24692;45.642;13.806;2022-10-30T03:02:38;16.10;99.90
36444;DHT22;24692;45.642;13.806;2022-10-30T03:05:04;16.10;99.90
36444;DHT22;24692;45.642;13.806;2022-10-30T03:07:29;16.10;99.90
36444;DHT22;24692;45.642;13.806;2022-10-30T03:09:55;16.10;99.90
36444;DHT22;24692;45.642;13.806;2022-10-30T03:12:21;16.10;99.90
36444;DHT22;24692;45.642;13.806;2022-10-30T03:14:47;16.10;99.90
36444;DHT22;24692;45.642;13.806;2022-10-30T03:17:12;16.10;99.90
36444;DHT22;24692;45.642;13.806;2022-10-30T03:19:38;16.10;99.90
36444;DHT22;24692;45.642;13.806;2022-10-30T03:22:05;16.00;99.90
36444;DHT22;24692;45.642;13.806;2022-10-30T03:24:31;16.00;99.90
36444;DHT22;24692;45.642;13.806;2022-10-30T03:26:57;16.00;99.90
36444;DHT22;24692;45.642;13.806;2022-10-30T03:29:22;16.00;99.90
36444;DHT22;24692;45.642;13.806;2022-10-30T03:31:48;16.00;99.90
36444;DHT22;24692;45.642;13.806;2022-10-30T03:34:13;16.00;99.90
36444;DHT22;24692;45.642;13.806;2022-10-30T03:36:39;15.90;99.90
36444;DHT22;24692;45.642;13.806;2022-10-30T03:39:05;16.00;99.90
36444;DHT22;24692;45.642;13.806;2022-10-30T03:41:30;16.00;99.90
36444;DHT22;24692;45.642;13.806;2022-10-30T03:43:56;16.00;99.90
36444;DHT22;24692;45.642;13.806;2022-10-30T03:46:22;15.90;99.90
36444;DHT22;24692;45.642;13.806;2022-10-30T03:48:48;15.90;99.90
36444;DHT22;24692;45.642;13.806;2022-10-30T03:51:14;15.80;99.90
36444;DHT22;24692;45.642;13.806;2022-10-30T03:53:40;15.80;99.90
36444;DHT22;24692;45.642;13.806;2022-10-30T03:56:06;15.80;99.90
36444;DHT22;24692;45.642;13.806;2022-10-30T03:58:32;15.80;99.90
36444;DHT22;24692;45.642;13.806;2022-10-30T04:01:05;15.70;99.90
36444;DHT22;24692;45.642;13.806;2022-10-30T04:03:31;15.70;99.90
36444;DHT22;24692;45.642;13.806;2022-10-30T04:05:57;15.70;99.90
36444;DHT22;24692;45.642;13.806;2022-10-30T04:08:23;15.70;99.90
36444;DHT22;24692;45.642;13.806;2022-10-30T04:10:48;15.70;99.90
36444;DHT22;24692;45.642;13.806;2022-10-30T04:13:15;15.70;99.90
36444;DHT22;24692;45.642;13.806;2022-10-30T04:15:42;15.70;99.90
36444;DHT22;24692;45.642;13.806;2022-10-30T04:18:11;15.70;99.90
36444;DHT22;24692;45.642;13.806;2022-10-30T04:20:37;15.70;99.90
36444;DHT22;24692;45.642;13.806;2022-10-30T04:23:06;15.70;99.90
36444;DHT22;24692;45.642;13.806;2022-10-30T04:25:35;15.70;99.90
36444;DHT22;24692;45.642;13.806;2022-10-30T04:28:01;15.80;99.90
36444;DHT22;24692;45.642;13.806;2022-10-30T04:30:27;15.80;99.90
36444;DHT22;24692;45.642;13.806;2022-10-30T04:32:56;15.80;99.90
36444;DHT22;24692;45.642;13.806;2022-10-30T04:35:28;15.80;99.90
36444;DHT22;24692;45.642;13.806;2022-10-30T04:37:58;15.80;99.90
36444;DHT22;24692;45.642;13.806;2022-10-30T04:40:26;15.70;99.90
36444;DHT22;24692;45.642;13.806;2022-10-30T04:42:53;15.90;99.90
36444;DHT22;24692;45.642;13.806;2022-10-30T04:45:18;15.90;99.90
36444;DHT22;24692;45.642;13.806;2022-10-30T04:47:44;15.80;99.90
36444;DHT22;24692;45.642;13.806;2022-10-30T04:50:11;15.70;99.90
36444;DHT22;24692;45.642;13.806;2022-10-30T04:52:37;15.70;99.90
36444;DHT22;24692;45.642;13.806;2022-10-30T04:55:03;15.70;99.90
36444;DHT22;24692;45.642;13.806;2022-10-30T04:57:28;15.60;99.90
36444;DHT22;24692;45.642;13.806;2022-10-30T04:59:56;15.60;99.90
36444;DHT22;24692;45.642;13.806;2022-10-30T05:02:22;15.50;99.90
36444;DHT22;24692;45.642;13.806;2022-10-30T05:04:47;15.50;99.90
36444;DHT22;24692;45.642;13.806;2022-10-30T05:07:14;15.50;99.90
36444;DHT22;24692;45.642;13.806;2022-10-30T05:09:40;15.50;99.90
36444;DHT22;24692;45.642;13.806;2022-10-30T05:12:06;15.50;99.90
36444;DHT22;24692;45.642;13.806;2022-10-30T05:14:32;15.50;99.90
36444;DHT22;24692;45.642;13.806;2022-10-30T05:16:58;15.60;99.90
36444;DHT22;24692;45.642;13.806;2022-10-30T05:19:24;15.60;99.90
36444;DHT22;24692;45.642;13.806;2022-10-30T05:21:50;15.50;99.90
36444;DHT22;24692;45.642;13.806;2022-10-30T05:24:16;15.60;99.90
36444;DHT22;24692;45.642;13.806;2022-10-30T05:26:42;15.60;99.90
36444;DHT22;24692;45.642;13.806;2022-10-30T05:29:07;15.60;99.90
36444;DHT22;24692;45.642;13.806;2022-10-30T05:31:33;15.70;99.90
36444;DHT22;24692;45.642;13.806;2022-10-30T05:33:59;15.80;99.90
36444;DHT22;24692;45.642;13.806;2022-10-30T05:36:24;15.80;99.90
36444;DHT22;24692;45.642;13.806;2022-10-30T05:38:50;15.80;99.90
36444;DHT22;24692;45.642;13.806;2022-10-30T05:41:16;15.80;99.90
36444;DHT22;24692;45.642;13.806;2022-10-30T05:43:42;15.80;99.90
36444;DHT22;24692;45.642;13.806;2022-10-30T05:46:07;15.80;99.90
36444;DHT22;24692;45.642;13.806;2022-10-30T05:48:33;15.80;99.90
36444;DHT22;24692;45.642;13.806;2022-10-30T05:50:59;15.80;99.90
36444;DHT22;24692;45.642;13.806;2022-10-30T05:53:24;15.80;99.90
36444;DHT22;24692;45.642;13.806;2022-10-30T05:55:50;15.90;99.90
36444;DHT22;24692;45.642;13.806;2022-10-30T05:58:16;15.90;99.90
36444;DHT22;24692;45.642;13.806;2022-10-30T06:00:41;16.00;99.90
36444;DHT22;24692;45.642;13.806;2022-10-30T06:03:12;16.00;99.90
36444;DHT22;24692;45.642;13.806;2022-10-30T06:05:38;16.00;99.90
36444;DHT22;24692;45.642;13.806;2022-10-30T06:08:05;16.10;99.90
36444;DHT22;24692;45.642;13.806;2022-10-30T06:10:31;16.10;99.90
36444;DHT22;24692;45.642;13.806;2022-10-30T06:12:59;16.20;99.90
36444;DHT22;24692;45.642;13.806;2022-10-30T06:15:26;16.30;99.90
36444;DHT22;24692;45.642;13.806;2022-10-30T06:17:52;16.40;99.90
36444;DHT22;24692;45.642;13.806;2022-10-30T06:20:19;16.50;99.90
36444;DHT22;24692;45.642;13.806;2022-10-30T06:22:55;16.70;99.90
36444;DHT22;24692;45.642;13.806;2022-10-30T06:25:21;17.20;99.90
36444;DHT22;24692;45.642;13.806;2022-10-30T06:27:47;18.00;99.90
36444;DHT22;24692;45.642;13.806;2022-10-30T06:30:12;18.60;99.90
36444;DHT22;24692;45.642;13.806;2022-10-30T06:32:38;19.40;99.90
36444;DHT22;24692;45.642;13.806;2022-10-30T06:35:04;19.90;99.90
36444;DHT22;24692;45.642;13.806;2022-10-30T06:37:30;20.00;99.90
36444;DHT22;24692;45.642;13.806;2022-10-30T06:39:55;20.60;99.90
36444;DHT22;24692;45.642;13.806;2022-10-30T06:42:21;21.30;99.90
36444;DHT22;24692;45.642;13.806;2022-10-30T06:44:46;21.60;99.90
36444;DHT22;24692;45.642;13.806;2022-10-30T06:47:14;21.90;99.90
36444;DHT22;24692;45.642;13.806;2022-10-30T06:49:39;22.20;99.90
36444;DHT22;24692;45.642;13.806;2022-10-30T06:52:05;22.30;99.90
36444;DHT22;24692;45.642;13.806;2022-10-30T06:54:30;22.90;99.90
36444;DHT22;24692;45.642;13.806;2022-10-30T06:56:56;23.10;99.90
36444;DHT22;24692;45.642;13.806;2022-10-30T06:59:22;23.50;99.90
36444;DHT22;24692;45.642;13.806;2022-10-30T07:01:48;24.20;99.90
36444;DHT22;24692;45.642;13.806;2022-10-30T07:04:13;24.90;99.90
36444;DHT22;24692;45.642;13.806;2022-10-30T07:06:39;25.40;99.90
36444;DHT22;24692;45.642;13.806;2022-10-30T07:09:05;25.50;99.90
36444;DHT22;24692;45.642;13.806;2022-10-30T07:11:30;25.80;99.90
36444;DHT22;24692;45.642;13.806;2022-10-30T07:13:56;26.30;99.90
36444;DHT22;24692;45.642;13.806;2022-10-30T07:16:21;27.00;99.90
36444;DHT22;24692;45.642;13.806;2022-10-30T07:18:47;27.30;99.90
36444;DHT22;24692;45.642;13.806;2022-10-30T07:21:13;27.80;99.90
36444;DHT22;24692;45.642;13.806;2022-10-30T07:23:38;28.70;99.90
36444;DHT22;24692;45.642;13.806;2022-10-30T07:26:04;28.60;99.90
36444;DHT22;24692;45.642;13.806;2022-10-30T07:28:29;28.40;99.90
36444;DHT22;24692;45.642;13.806;2022-10-30T07:30:57;29.20;99.90
36444;DHT22;24692;45.642;13.806;2022-10-30T07:33:23;28.90;99.90
36444;DHT22;24692;45.642;13.806;2022-10-30T07:35:49;29.30;99.90
36444;DHT22;24692;45.642;13.806;2022-10-30T07:38:14;29.90;99.90
36444;DHT22;24692;45.642;13.806;2022-10-30T07:40:42;30.30;99.90
36444;DHT22;24692;45.642;13.806;2022-10-30T07:43:08;30.70;99.90
36444;DHT22;24692;45.642;13.806;2022-10-30T07:45:37;31.40;99.90
36444;DHT22;24692;45.642;13.806;2022-10-30T07:48:03;31.40;99.90
36444;DHT22;24692;45.642;13.806;2022-10-30T07:50:29;31.30;99.90
36444;DHT22;24692;45.642;13.806;2022-10-30T07:52:55;31.40;99.90
36444;DHT22;24692;45.642;13.806;2022-10-30T07:55:21;31.20;99.90
36444;DHT22;24692;45.642;13.806;2022-10-30T07:57:47;31.10;99.90
36444;DHT22;24692;45.642;13.806;2022-10-30T08:00:13;31.30;99.90
36444;DHT22;24692;45.642;13.806;2022-10-30T08:02:40;31.30;99.90
36444;DHT22;24692;45.642;13.806;2022-10-30T08:05:05;31.80;99.90
36444;DHT22;24692;45.642;13.806;2022-10-30T08:07:33;31.70;99.90
36444;DHT22;24692;45.642;13.806;2022-10-30T08:09:59;32.00;99.90
36444;DHT22;24692;45.642;13.806;2022-10-30T08:12:26;31.70;99.90
36444;DHT22;24692;45.642;13.806;2022-10-30T08:14:52;31.50;99.90
36444;DHT22;24692;45.642;13.806;2022-10-30T08:17:20;31.10;99.90
36444;DHT22;24692;45.642;13.806;2022-10-30T08:19:46;30.90;99.90
36444;DHT22;24692;45.642;13.806;2022-10-30T08:22:12;31.20;99.90
36444;DHT22;24692;45.642;13.806;2022-10-30T08:24:38;31.40;99.90
36444;DHT22;24692;45.642;13.806;2022-10-30T08:27:04;30.90;99.90
36444;DHT22;24692;45.642;13.806;2022-10-30T08:29:30;31.00;99.90
36444;DHT22;24692;45.642;13.806;2022-10-30T08:31:56;31.00;99.90
36444;DHT22;24692;45.642;13.806;2022-10-30T08:34:22;31.10;99.90
36444;DHT22;24692;45.642;13.806;2022-10-30T08:36:51;31.00;99.90
36444;DHT22;24692;45.642;13.806;2022-10-30T08:39:17;31.50;99.90
36444;DHT22;24692;45.642;13.806;2022-10-30T08:41:43;31.80;99.90
36444;DHT22;24692;45.642;13.806;2022-10-30T08:44:09;31.80;99.90
36444;DHT22;24692;45.642;13.806;2022-10-30T08:46:35;31.80;99.90
36444;DHT22;24692;45.642;13.806;2022-10-30T08:49:00;31.70;99.90
36444;DHT22;24692;45.642;13.806;2022-10-30T08:51:26;31.70;99.90
36444;DHT22;24692;45.642;13.806;2022-10-30T08:53:52;31.60;99.90
36444;DHT22;24692;45.642;13.806;2022-10-30T08:56:18;31.30;99.90
36444;DHT22;24692;45.642;13.806;2022-10-30T08:58:43;32.00;99.90
36444;DHT22;24692;45.642;13.806;2022-10-30T09:01:09;32.20;99.90
36444;DHT22;24692;45.642;13.806;2022-10-30T09:03:35;32.40;99.90
36444;DHT22;24692;45.642;13.806;2022-10-30T09:06:01;32.50;99.90
36444;DHT22;24692;45.642;13.806;2022-10-30T09:08:27;32.80;99.90
36444;DHT22;24692;45.642;13.806;2022-10-30T09:10:54;32.90;99.90
36444;DHT22;24692;45.642;13.806;2022-10-30T09:13:20;32.90;99.90
36444;DHT22;24692;45.642;13.806;2022-10-30T09:15:45;33.00;99.90
36444;DHT22;24692;45.642;13.806;2022-10-30T09:18:11;32.50;99.90
36444;DHT22;24692;45.642;13.806;2022-10-30T09:20:37;32.80;99.90
36444;DHT22;24692;45.642;13.806;2022-10-30T09:23:03;32.90;99.90
36444;DHT22;24692;45.642;13.806;2022-10-30T09:25:29;33.10;99.90
36444;DHT22;24692;45.642;13.806;2022-10-30T09:27:54;33.00;99.90
36444;DHT22;24692;45.642;13.806;2022-10-30T09:30:21;32.80;99.90
36444;DHT22;24692;45.642;13.806;2022-10-30T09:32:54;31.40;99.90
36444;DHT22;24692;45.642;13.806;2022-10-30T09:35:19;31.60;99.90
36444;DHT22;24692;45.642;13.806;2022-10-30T09:37:45;31.90;99.90
36444;DHT22;24692;45.642;13.806;2022-10-30T09:42:58;32.30;99.90
36444;DHT22;24692;45.642;13.806;2022-10-30T09:56:44;32.40;99.90
36444;DHT22;24692;45.642;13.806;2022-10-30T10:04:51;32.90;99.90
36444;DHT22;24692;45.642;13.806;2022-10-30T10:07:27;32.70;99.90
36444;DHT22;24692;45.642;13.806;2022-10-30T10:09:59;33.10;99.90
36444;DHT22;24692;45.642;13.806;2022-10-30T10:12:46;32.40;99.90
36444;DHT22;24692;45.642;13.806;2022-10-30T10:15:48;31.80;99.90
36444;DHT22;24692;45.642;13.806;2022-10-30T10:18:32;31.80;99.90
36444;DHT22;24692;45.642;13.806;2022-10-30T10:21:07;32.10;99.90
36444;DHT22;24692;45.642;13.806;2022-10-30T10:23:40;31.70;99.90
36444;DHT22;24692;45.642;13.806;2022-10-30T10:42:17;30.40;99.90
36444;DHT22;24692;45.642;13.806;2022-10-30T10:48:05;30.80;99.90
36444;DHT22;24692;45.642;13.806;2022-10-30T10:50:47;30.20;99.90
36444;DHT22;24692;45.642;13.806;2022-10-30T10:53:19;30.70;99.90
36444;DHT22;24692;45.642;13.806;2022-10-30T10:55:49;30.50;99.90
36444;DHT22;24692;45.642;13.806;2022-10-30T10:58:42;30.80;99.90
36444;DHT22;24692;45.642;13.806;2022-10-30T11:01:14;31.20;99.90
36444;DHT22;24692;45.642;13.806;2022-10-30T11:06:34;31.70;99.90
36444;DHT22;24692;45.642;13.806;2022-10-30T11:09:23;32.00;99.90
36444;DHT22;24692;45.642;13.806;2022-10-30T11:11:53;32.10;99.90
36444;DHT22;24692;45.642;13.806;2022-10-30T11:14:27;32.40;99.90
36444;DHT22;24692;45.642;13.806;2022-10-30T11:19:37;32.00;99.90
36444;DHT22;24692;45.642;13.806;2022-10-30T11:22:15;31.90;99.90
36444;DHT22;24692;45.642;13.806;2022-10-30T11:24:43;31.40;99.90
36444;DHT22;24692;45.642;13.806;2022-10-30T11:27:25;31.30;99.90
36444;DHT22;24692;45.642;13.806;2022-10-30T11:29:57;31.50;99.90
36444;DHT22;24692;45.642;13.806;2022-10-30T11:32:28;32.10;99.90
36444;DHT22;24692;45.642;13.806;2022-10-30T11:37:42;31.90;99.90
36444;DHT22;24692;45.642;13.806;2022-10-30T11:43:00;31.60;99.90
36444;DHT22;24692;45.642;13.806;2022-10-30T11:45:31;31.70;99.90
36444;DHT22;24692;45.642;13.806;2022-10-30T11:47:58;31.30;99.90
36444;DHT22;24692;45.642;13.806;2022-10-30T11:50:27;31.90;99.90
36444;DHT22;24692;45.642;13.806;2022-10-30T11:53:18;31.70;99.90
36444;DHT22;24692;45.642;13.806;2022-10-30T11:55:46;32.20;99.90
36444;DHT22;24692;45.642;13.806;2022-10-30T11:58:34;31.60;99.90
36444;DHT22;24692;45.642;13.806;2022-10-30T12:03:40;31.90;99.90
36444;DHT22;24692;45.642;13.806;2022-10-30T12:06:24;31.50;99.90
36444;DHT22;24692;45.642;13.806;2022-10-30T12:11:35;31.90;99.90
36444;DHT22;24692;45.642;13.806;2022-10-30T12:14:02;32.30;99.90
36444;DHT22;24692;45.642;13.806;2022-10-30T12:16:29;31.60;99.90
36444;DHT22;24692;45.642;13.806;2022-10-30T12:21:24;31.40;99.90
36444;DHT22;24692;45.642;13.806;2022-10-30T12:23:57;31.10;99.90
36444;DHT22;24692;45.642;13.806;2022-10-30T12:26:23;30.70;99.90
36444;DHT22;24692;45.642;13.806;2022-10-30T12:28:57;31.00;99.90
36444;DHT22;24692;45.642;13.806;2022-10-30T12:31:40;31.20;99.90
36444;DHT22;24692;45.642;13.806;2022-10-30T12:37:16;31.40;99.90
36444;DHT22;24692;45.642;13.806;2022-10-30T12:42:16;30.00;99.90
36444;DHT22;24692;45.642;13.806;2022-10-30T12:44:46;29.90;99.90
36444;DHT22;24692;45.642;13.806;2022-10-30T12:55:40;29.60;99.90
36444;DHT22;24692;45.642;13.806;2022-10-30T12:58:56;30.00;99.90
36444;DHT22;24692;45.642;13.806;2022-10-30T13:01:11;29.60;99.90
36444;DHT22;24692;45.642;13.806;2022-10-30T13:03:49;29.30;99.90
36444;DHT22;24692;45.642;13.806;2022-10-30T13:06:29;29.70;99.90
36444;DHT22;24692;45.642;13.806;2022-10-30T13:14:04;30.10;99.90
36444;DHT22;24692;45.642;13.806;2022-10-30T13:16:35;30.00;99.90
36444;DHT22;24692;45.642;13.806;2022-10-30T13:19:01;29.70;99.90
36444;DHT22;24692;45.642;13.806;2022-10-30T13:21:53;29.50;99.90
36444;DHT22;24692;45.642;13.806;2022-10-30T13:24:22;30.00;99.90
36444;DHT22;24692;45.642;13.806;2022-10-30T13:30:03;29.80;99.90
36444;DHT22;24692;45.642;13.806;2022-10-30T13:35:34;29.90;99.90
36444;DHT22;24692;45.642;13.806;2022-10-30T13:40:56;30.60;99.90
36444;DHT22;24692;45.642;13.806;2022-10-30T13:48:49;29.60;99.90
36444;DHT22;24692;45.642;13.806;2022-10-30T13:51:34;30.10;99.90
36444;DHT22;24692;45.642;13.806;2022-10-30T13:56:40;30.60;99.90
36444;DHT22;24692;45.642;13.806;2022-10-30T14:02:10;30.80;99.90
36444;DHT22;24692;45.642;13.806;2022-10-30T14:07:30;29.90;99.90
36444;DHT22;24692;45.642;13.806;2022-10-30T14:10:05;30.00;99.90
36444;DHT22;24692;45.642;13.806;2022-10-30T14:13:12;29.80;99.90
36444;DHT22;24692;45.642;13.806;2022-10-30T14:15:44;29.30;99.90
36444;DHT22;24692;45.642;13.806;2022-10-30T14:20:40;29.50;99.90
36444;DHT22;24692;45.642;13.806;2022-10-30T14:26:13;30.00;99.90
36444;DHT22;24692;45.642;13.806;2022-10-30T14:28:42;30.00;99.90
36444;DHT22;24692;45.642;13.806;2022-10-30T14:31:12;29.90;99.90
36444;DHT22;24692;45.642;13.806;2022-10-30T14:33:54;29.90;99.90
36444;DHT22;24692;45.642;13.806;2022-10-30T14:38:59;29.40;99.90
36444;DHT22;24692;45.642;13.806;2022-10-30T14:48:00;28.90;99.90
36444;DHT22;24692;45.642;13.806;2022-10-30T14:50:48;28.80;99.90
36444;DHT22;24692;45.642;13.806;2022-10-30T14:58:39;28.30;99.90
36444;DHT22;24692;45.642;13.806;2022-10-30T15:06:31;27.60;99.90
36444;DHT22;24692;45.642;13.806;2022-10-30T15:14:32;26.70;99.90
36444;DHT22;24692;45.642;13.806;2022-10-30T15:16:59;26.40;99.90
36444;DHT22;24692;45.642;13.806;2022-10-30T15:19:25;26.10;99.90
36444;DHT22;24692;45.642;13.806;2022-10-30T15:21:54;25.90;99.90
36444;DHT22;24692;45.642;13.806;2022-10-30T15:24:23;25.40;99.90
36444;DHT22;24692;45.642;13.806;2022-10-30T15:26:51;24.90;99.90
36444;DHT22;24692;45.642;13.806;2022-10-30T15:29:24;24.50;99.90
36444;DHT22;24692;45.642;13.806;2022-10-30T15:32:00;24.10;99.90
36444;DHT22;24692;45.642;13.806;2022-10-30T15:34:28;23.90;99.90
36444;DHT22;24692;45.642;13.806;2022-10-30T15:36:54;23.50;99.90
36444;DHT22;24692;45.642;13.806;2022-10-30T15:39:21;23.20;99.90
36444;DHT22;24692;45.642;13.806;2022-10-30T15:41:56;22.70;99.90
36444;DHT22;24692;45.642;13.806;2022-10-30T15:44:26;22.30;99.90
36444;DHT22;24692;45.642;13.806;2022-10-30T15:46:54;22.00;99.90
36444;DHT22;24692;45.642;13.806;2022-10-30T15:49:33;21.70;99.90
36444;DHT22;24692;45.642;13.806;2022-10-30T15:52:01;21.50;99.90
36444;DHT22;24692;45.642;13.806;2022-10-30T15:54:28;21.30;99.90
36444;DHT22;24692;45.642;13.806;2022-10-30T15:56:58;21.20;99.90
36444;DHT22;24692;45.642;13.806;2022-10-30T15:59:29;20.90;99.90
36444;DHT22;24692;45.642;13.806;2022-10-30T16:01:57;20.80;99.90
36444;DHT22;24692;45.642;13.806;2022-10-30T16:04:35;20.70;99.90
36444;DHT22;24692;45.642;13.806;2022-10-30T16:07:08;20.50;99.90
36444;DHT22;24692;45.642;13.806;2022-10-30T16:10:00;20.50;99.90
36444;DHT22;24692;45.642;13.806;2022-10-30T16:12:32;20.30;99.90
36444;DHT22;24692;45.642;13.806;2022-10-30T16:15:03;20.20;99.90
36444;DHT22;24692;45.642;13.806;2022-10-30T16:17:30;20.10;99.90
36444;DHT22;24692;45.642;13.806;2022-10-30T16:19:59;19.90;99.90
36444;DHT22;24692;45.642;13.806;2022-10-30T16:22:32;19.80;99.90
36444;DHT22;24692;45.642;13.806;2022-10-30T16:25:00;19.60;99.90
36444;DHT22;24692;45.642;13.806;2022-10-30T16:27:26;19.50;99.90
36444;DHT22;24692;45.642;13.806;2022-10-30T16:29:56;19.50;99.90
36444;DHT22;24692;45.642;13.806;2022-10-30T16:32:28;19.40;99.90
36444;DHT22;24692;45.642;13.806;2022-10-30T16:34:59;19.40;99.90
36444;DHT22;24692;45.642;13.806;2022-10-30T16:37:34;19.40;99.90
36444;DHT22;24692;45.642;13.806;2022-10-30T16:40:15;19.30;99.90
36444;DHT22;24692;45.642;13.806;2022-10-30T16:42:49;19.20;99.90
36444;DHT22;24692;45.642;13.806;2022-10-30T16:47:45;19.00;99.90
36444;DHT22;24692;45.642;13.806;2022-10-30T16:50:13;18.90;99.90
36444;DHT22;24692;45.642;13.806;2022-10-30T16:52:40;18.70;99.90
36444;DHT22;24692;45.642;13.806;2022-10-30T16:55:13;18.70;99.90
36444;DHT22;24692;45.642;13.806;2022-10-30T16:57:42;18.70;99.90
36444;DHT22;24692;45.642;13.806;2022-10-30T17:00:20;18.70;99.90
36444;DHT22;24692;45.642;13.806;2022-10-30T17:02:48;18.60;99.90
36444;DHT22;24692;45.642;13.806;2022-10-30T17:07:55;18.80;99.90
36444;DHT22;24692;45.642;13.806;2022-10-30T17:10:42;18.80;99.90
36444;DHT22;24692;45.642;13.806;2022-10-30T17:18:38;19.10;99.90
36444;DHT22;24692;45.642;13.806;2022-10-30T17:21:10;19.10;99.90
36444;DHT22;24692;45.642;13.806;2022-10-30T17:23:46;19.20;99.90
36444;DHT22;24692;45.642;13.806;2022-10-30T17:26:13;19.30;99.90
36444;DHT22;24692;45.642;13.806;2022-10-30T17:28:40;19.30;99.90
36444;DHT22;24692;45.642;13.806;2022-10-30T17:34:12;19.10;99.90
36444;DHT22;24692;45.642;13.806;2022-10-30T17:36:38;19.20;99.90
36444;DHT22;24692;45.642;13.806;2022-10-30T17:39:04;19.10;99.90
36444;DHT22;24692;45.642;13.806;2022-10-30T17:41:30;19.10;99.90
36444;DHT22;24692;45.642;13.806;2022-10-30T17:43:56;19.10;99.90
36444;DHT22;24692;45.642;13.806;2022-10-30T17:46:24;19.00;99.90
36444;DHT22;24692;45.642;13.806;2022-10-30T17:48:50;18.80;99.90
36444;DHT22;24692;45.642;13.806;2022-10-30T17:51:17;18.40;99.90
36444;DHT22;24692;45.642;13.806;2022-10-30T17:53:43;18.30;99.90
36444;DHT22;24692;45.642;13.806;2022-10-30T17:56:19;18.10;99.90
36444;DHT22;24692;45.642;13.806;2022-10-30T17:58:46;18.20;99.90
36444;DHT22;24692;45.642;13.806;2022-10-30T18:01:24;18.30;99.90
36444;DHT22;24692;45.642;13.806;2022-10-30T18:03:52;18.50;99.90
36444;DHT22;24692;45.642;13.806;2022-10-30T18:06:21;18.60;99.90
36444;DHT22;24692;45.642;13.806;2022-10-30T18:08:47;18.70;99.90
36444;DHT22;24692;45.642;13.806;2022-10-30T18:11:15;18.70;99.90
36444;DHT22;24692;45.642;13.806;2022-10-30T18:13:44;18.70;99.90
36444;DHT22;24692;45.642;13.806;2022-10-30T18:16:11;18.70;99.90
36444;DHT22;24692;45.642;13.806;2022-10-30T18:18:39;18.70;99.90
36444;DHT22;24692;45.642;13.806;2022-10-30T18:21:05;18.70;99.90